KAC737 LEBB-LEMD
Flight info
| Callsign | KAC737 |
|---|---|
| Flight time | 0h 46m |
| Altitude | 31000 |
| Route | AMTOS L14 NEA N864 NONTU |
| Aircraft | B738/M-SDE2E3FGHIRWXY/LB1 |
Departure
| Time | 2026-05-05 21:15 |
|---|---|
| Airport | Bilbao Airport (LEBB) |
Arrival
| Time | 2026-05-05 22:02 |
|---|---|
| Airport | Adolfo Suárez Madrid–Barajas Airport (LEMD) |
| Time | Latitude | Longitude | Altitude | Speed | Heading |
|---|---|---|---|---|---|
| 2026-05-05 20:38 | 43.30441 | -2.90685 | 126 ft | 0 kts | 26° |
| 2026-05-05 21:04 | 43.30439 | -2.90687 | 126 ft | 3 kts | 26° |
| 2026-05-05 21:04 | 43.30415 | -2.90701 | 124 ft | 4 kts | 15° |
| 2026-05-05 21:04 | 43.30389 | -2.90707 | 122 ft | 4 kts | 351° |
| 2026-05-05 21:05 | 43.30369 | -2.90694 | 126 ft | 3 kts | 298° |
| 2026-05-05 21:05 | 43.30368 | -2.90691 | 121 ft | 1 kts | 296° |
| 2026-05-05 21:08 | 43.30370 | -2.90697 | 126 ft | 2 kts | 296° |
| 2026-05-05 21:09 | 43.30380 | -2.90726 | 122 ft | 5 kts | 296° |
| 2026-05-05 21:09 | 43.30401 | -2.90782 | 124 ft | 8 kts | 296° |
| 2026-05-05 21:09 | 43.30418 | -2.90866 | 125 ft | 10 kts | 260° |
| 2026-05-05 21:09 | 43.30394 | -2.90969 | 122 ft | 12 kts | 229° |
| 2026-05-05 21:10 | 43.30317 | -2.91038 | 126 ft | 14 kts | 232° |
| 2026-05-05 21:10 | 43.30334 | -2.91164 | 125 ft | 15 kts | 297° |
| 2026-05-05 21:10 | 43.30385 | -2.91301 | 124 ft | 17 kts | 297° |
| 2026-05-05 21:10 | 43.30441 | -2.91453 | 123 ft | 19 kts | 297° |
| 2026-05-05 21:11 | 43.30503 | -2.91617 | 125 ft | 20 kts | 297° |
| 2026-05-05 21:11 | 43.30569 | -2.91794 | 123 ft | 21 kts | 295° |
| 2026-05-05 21:11 | 43.30632 | -2.91976 | 123 ft | 21 kts | 296° |
| 2026-05-05 21:11 | 43.30697 | -2.92151 | 125 ft | 20 kts | 297° |
| 2026-05-05 21:12 | 43.30758 | -2.92318 | 123 ft | 19 kts | 297° |
| 2026-05-05 21:12 | 43.30789 | -2.92486 | 125 ft | 19 kts | 229° |
| 2026-05-05 21:12 | 43.30662 | -2.92464 | 124 ft | 20 kts | 158° |
| 2026-05-05 21:12 | 43.30583 | -2.92347 | 126 ft | 0 kts | 118° |
| 2026-05-05 21:14 | 43.30580 | -2.92341 | 132 ft | 2 kts | 117° |
| 2026-05-05 21:14 | 43.30569 | -2.92312 | 125 ft | 5 kts | 117° |
| 2026-05-05 21:15 | 43.30466 | -2.92030 | 127 ft | 78 kts | 117° |
| 2026-05-05 21:15 | 43.30098 | -2.91026 | 125 ft | 159 kts | 116° |
| 2026-05-05 21:15 | 43.29529 | -2.89509 | 758 ft | 183 kts | 118° |
| 2026-05-05 21:15 | 43.28967 | -2.88034 | 2116 ft | 169 kts | 116° |
| 2026-05-05 21:16 | 43.28425 | -2.86509 | 2892 ft | 191 kts | 114° |
| 2026-05-05 21:16 | 43.27790 | -2.84743 | 3184 ft | 220 kts | 115° |
| 2026-05-05 21:16 | 43.27087 | -2.82824 | 3657 ft | 233 kts | 117° |
| 2026-05-05 21:16 | 43.26343 | -2.80802 | 4297 ft | 240 kts | 117° |
| 2026-05-05 21:17 | 43.25590 | -2.78757 | 5126 ft | 240 kts | 117° |
| 2026-05-05 21:17 | 43.24841 | -2.76706 | 5896 ft | 244 kts | 114° |
| 2026-05-05 21:17 | 43.24469 | -2.74427 | 6629 ft | 246 kts | 85° |
| 2026-05-05 21:17 | 43.24875 | -2.72179 | 7388 ft | 244 kts | 59° |
| 2026-05-05 21:18 | 43.25932 | -2.70391 | 8094 ft | 241 kts | 33° |
| 2026-05-05 21:18 | 43.27397 | -2.69392 | 8787 ft | 238 kts | 9° |
| 2026-05-05 21:18 | 43.29039 | -2.69305 | 9487 ft | 235 kts | 345° |
| 2026-05-05 21:18 | 43.30529 | -2.70121 | 10182 ft | 233 kts | 323° |
| 2026-05-05 21:19 | 43.31663 | -2.71704 | 10861 ft | 234 kts | 300° |
| 2026-05-05 21:19 | 43.32226 | -2.73789 | 11562 ft | 235 kts | 278° |
| 2026-05-05 21:19 | 43.32232 | -2.76060 | 12217 ft | 240 kts | 264° |
| 2026-05-05 21:19 | 43.31998 | -2.78318 | 12910 ft | 242 kts | 262° |
| 2026-05-05 21:20 | 43.31727 | -2.80618 | 13583 ft | 245 kts | 262° |
| 2026-05-05 21:20 | 43.31461 | -2.82947 | 14226 ft | 248 kts | 262° |
| 2026-05-05 21:20 | 43.31204 | -2.85267 | 14861 ft | 249 kts | 263° |
| 2026-05-05 21:20 | 43.30945 | -2.87647 | 15485 ft | 253 kts | 263° |
| 2026-05-05 21:21 | 43.30684 | -2.90059 | 16110 ft | 256 kts | 263° |
| 2026-05-05 21:21 | 43.30123 | -2.92387 | 16683 ft | 262 kts | 237° |
| 2026-05-05 21:21 | 43.28824 | -2.94236 | 16950 ft | 283 kts | 220° |
| 2026-05-05 21:21 | 43.27169 | -2.95891 | 17131 ft | 304 kts | 217° |
| 2026-05-05 21:22 | 43.25373 | -2.97606 | 17286 ft | 325 kts | 217° |
| 2026-05-05 21:22 | 43.23453 | -2.99432 | 17444 ft | 345 kts | 217° |
| 2026-05-05 21:22 | 43.21446 | -3.01348 | 17581 ft | 364 kts | 217° |
| 2026-05-05 21:22 | 43.19308 | -3.03404 | 17710 ft | 382 kts | 217° |
| 2026-05-05 21:23 | 43.17107 | -3.05531 | 17878 ft | 398 kts | 217° |
| 2026-05-05 21:23 | 43.14816 | -3.07748 | 18291 ft | 405 kts | 217° |
| 2026-05-05 21:23 | 43.12508 | -3.09985 | 18858 ft | 407 kts | 217° |
| 2026-05-05 21:23 | 43.10184 | -3.12237 | 19439 ft | 409 kts | 217° |
| 2026-05-05 21:24 | 43.07878 | -3.14473 | 19953 ft | 412 kts | 217° |
| 2026-05-05 21:24 | 43.06319 | -3.15984 | 20285 ft | 414 kts | 217° |
| 2026-05-05 21:24 | 43.03176 | -3.19028 | 20928 ft | 418 kts | 217° |
| 2026-05-05 21:24 | 43.00785 | -3.21339 | 21390 ft | 421 kts | 217° |
| 2026-05-05 21:25 | 42.99197 | -3.22868 | 21691 ft | 422 kts | 217° |
| 2026-05-05 21:25 | 42.96765 | -3.25158 | 22147 ft | 425 kts | 216° |
| 2026-05-05 21:25 | 42.93497 | -3.28185 | 22729 ft | 429 kts | 216° |
| 2026-05-05 21:25 | 42.91851 | -3.29703 | 23008 ft | 430 kts | 216° |
| 2026-05-05 21:26 | 42.89353 | -3.32007 | 23431 ft | 433 kts | 216° |
| 2026-05-05 21:26 | 42.86835 | -3.34330 | 23834 ft | 435 kts | 216° |
| 2026-05-05 21:26 | 42.84353 | -3.36621 | 24214 ft | 437 kts | 216° |
| 2026-05-05 21:26 | 42.81819 | -3.38961 | 24615 ft | 439 kts | 216° |
| 2026-05-05 21:27 | 42.79286 | -3.41302 | 25003 ft | 440 kts | 216° |
| 2026-05-05 21:27 | 42.76736 | -3.43656 | 25363 ft | 442 kts | 217° |
| 2026-05-05 21:27 | 42.74218 | -3.45978 | 25758 ft | 443 kts | 217° |
| 2026-05-05 21:27 | 42.71649 | -3.48344 | 26130 ft | 444 kts | 217° |
| 2026-05-05 21:28 | 42.69083 | -3.50706 | 26475 ft | 445 kts | 217° |
| 2026-05-05 21:28 | 42.66530 | -3.53054 | 26798 ft | 447 kts | 217° |
| 2026-05-05 21:28 | 42.63945 | -3.55429 | 27099 ft | 448 kts | 217° |
| 2026-05-05 21:28 | 42.61380 | -3.57781 | 27428 ft | 449 kts | 218° |
| 2026-05-05 21:29 | 42.58786 | -3.60159 | 27735 ft | 449 kts | 218° |
| 2026-05-05 21:29 | 42.56187 | -3.62539 | 28056 ft | 450 kts | 218° |
| 2026-05-05 21:29 | 42.53584 | -3.64921 | 28348 ft | 450 kts | 218° |
| 2026-05-05 21:29 | 42.51011 | -3.67269 | 28729 ft | 449 kts | 218° |
| 2026-05-05 21:30 | 42.48412 | -3.69639 | 29219 ft | 444 kts | 219° |
| 2026-05-05 21:30 | 42.45854 | -3.71968 | 29695 ft | 441 kts | 219° |
| 2026-05-05 21:30 | 42.43347 | -3.74250 | 30132 ft | 437 kts | 219° |
| 2026-05-05 21:30 | 42.40835 | -3.76537 | 30543 ft | 435 kts | 220° |
| 2026-05-05 21:31 | 42.38304 | -3.78845 | 30772 ft | 435 kts | 220° |
| 2026-05-05 21:31 | 42.35782 | -3.81136 | 30992 ft | 436 kts | 220° |
| 2026-05-05 21:31 | 42.30793 | -3.85665 | 31039 ft | 430 kts | 220° |
| 2026-05-05 21:32 | 42.25863 | -3.90115 | 31038 ft | 422 kts | 220° |
| 2026-05-05 21:32 | 42.20982 | -3.94529 | 31052 ft | 424 kts | 220° |
| 2026-05-05 21:33 | 42.16082 | -3.98957 | 31041 ft | 426 kts | 220° |
| 2026-05-05 21:33 | 42.11144 | -4.03411 | 31045 ft | 428 kts | 220° |
| 2026-05-05 21:34 | 42.06165 | -4.07827 | 31034 ft | 430 kts | 216° |
| 2026-05-05 21:34 | 42.00551 | -4.10855 | 31039 ft | 443 kts | 202° |
| 2026-05-05 21:35 | 41.94392 | -4.12029 | 31047 ft | 451 kts | 192° |
| 2026-05-05 21:35 | 41.88126 | -4.12652 | 31050 ft | 450 kts | 192° |
| 2026-05-05 21:36 | 41.81896 | -4.13274 | 31036 ft | 450 kts | 192° |
| 2026-05-05 21:36 | 41.75649 | -4.13983 | 31033 ft | 450 kts | 193° |
| 2026-05-05 21:37 | 41.69448 | -4.14673 | 31032 ft | 449 kts | 192° |
| 2026-05-05 21:37 | 41.63226 | -4.15389 | 31031 ft | 448 kts | 192° |
| 2026-05-05 21:38 | 41.57031 | -4.16100 | 31036 ft | 448 kts | 192° |
| 2026-05-05 21:38 | 41.50853 | -4.16808 | 31038 ft | 447 kts | 192° |
| 2026-05-05 21:39 | 41.44615 | -4.17505 | 31039 ft | 448 kts | 192° |
| 2026-05-05 21:39 | 41.38426 | -4.18201 | 31032 ft | 448 kts | 192° |
| 2026-05-05 21:40 | 41.32181 | -4.18903 | 31033 ft | 448 kts | 192° |
| 2026-05-05 21:40 | 41.25974 | -4.19596 | 30781 ft | 451 kts | 192° |
| 2026-05-05 21:41 | 41.22821 | -4.19858 | 30194 ft | 452 kts | 190° |
| 2026-05-05 21:41 | 41.19697 | -4.20042 | 29437 ft | 453 kts | 190° |
| 2026-05-05 21:41 | 41.16555 | -4.20199 | 28915 ft | 447 kts | 189° |
| 2026-05-05 21:41 | 41.13485 | -4.20355 | 28376 ft | 442 kts | 189° |
| 2026-05-05 21:42 | 41.10423 | -4.20520 | 27830 ft | 438 kts | 189° |
| 2026-05-05 21:42 | 41.07370 | -4.20694 | 27285 ft | 433 kts | 189° |
| 2026-05-05 21:42 | 41.04374 | -4.20874 | 26752 ft | 429 kts | 189° |
| 2026-05-05 21:42 | 41.01437 | -4.21054 | 26229 ft | 425 kts | 189° |
| 2026-05-05 21:43 | 40.98478 | -4.21237 | 25697 ft | 422 kts | 189° |
| 2026-05-05 21:43 | 40.95580 | -4.21414 | 25172 ft | 418 kts | 189° |
| 2026-05-05 21:43 | 40.92688 | -4.21590 | 24650 ft | 414 kts | 188° |
| 2026-05-05 21:43 | 40.89811 | -4.21764 | 24131 ft | 411 kts | 188° |
| 2026-05-05 21:44 | 40.86955 | -4.21936 | 23618 ft | 407 kts | 188° |
| 2026-05-05 21:44 | 40.84160 | -4.22105 | 23117 ft | 404 kts | 188° |
| 2026-05-05 21:44 | 40.81353 | -4.22274 | 22614 ft | 401 kts | 188° |
| 2026-05-05 21:44 | 40.78597 | -4.22440 | 22116 ft | 398 kts | 188° |
| 2026-05-05 21:45 | 40.75823 | -4.22606 | 21627 ft | 395 kts | 188° |
| 2026-05-05 21:45 | 40.73099 | -4.22770 | 21117 ft | 393 kts | 188° |
| 2026-05-05 21:45 | 40.70368 | -4.22935 | 20628 ft | 390 kts | 188° |
| 2026-05-05 21:45 | 40.67661 | -4.23097 | 20136 ft | 387 kts | 188° |
| 2026-05-05 21:46 | 40.64972 | -4.23258 | 19646 ft | 384 kts | 188° |
| 2026-05-05 21:46 | 40.62340 | -4.23417 | 19173 ft | 382 kts | 188° |
| 2026-05-05 21:46 | 40.59685 | -4.23577 | 18684 ft | 379 kts | 188° |
| 2026-05-05 21:46 | 40.57054 | -4.23735 | 18215 ft | 377 kts | 188° |
| 2026-05-05 21:47 | 40.54440 | -4.23892 | 17727 ft | 375 kts | 188° |
| 2026-05-05 21:47 | 40.51816 | -4.23699 | 17212 ft | 384 kts | 171° |
| 2026-05-05 21:47 | 40.49287 | -4.22482 | 16800 ft | 386 kts | 162° |
| 2026-05-05 21:47 | 40.46813 | -4.21144 | 16295 ft | 384 kts | 162° |
| 2026-05-05 21:48 | 40.44347 | -4.19829 | 15835 ft | 381 kts | 162° |
| 2026-05-05 21:48 | 40.41889 | -4.18548 | 15363 ft | 378 kts | 163° |
| 2026-05-05 21:48 | 40.39447 | -4.17294 | 14898 ft | 375 kts | 163° |
| 2026-05-05 21:48 | 40.37024 | -4.16036 | 14433 ft | 374 kts | 159° |
| 2026-05-05 21:49 | 40.34908 | -4.14126 | 13962 ft | 379 kts | 135° |
| 2026-05-05 21:49 | 40.33421 | -4.11291 | 13682 ft | 378 kts | 115° |
| 2026-05-05 21:49 | 40.32542 | -4.08098 | 13390 ft | 376 kts | 109° |
| 2026-05-05 21:49 | 40.31735 | -4.04777 | 13066 ft | 379 kts | 108° |
| 2026-05-05 21:50 | 40.30944 | -4.01478 | 12737 ft | 379 kts | 108° |
| 2026-05-05 21:50 | 40.30148 | -3.98192 | 12416 ft | 376 kts | 108° |
| 2026-05-05 21:50 | 40.29350 | -3.94945 | 12100 ft | 372 kts | 109° |
| 2026-05-05 21:50 | 40.28552 | -3.91736 | 11797 ft | 368 kts | 109° |
| 2026-05-05 21:51 | 40.27756 | -3.88568 | 11485 ft | 363 kts | 109° |
| 2026-05-05 21:51 | 40.26979 | -3.85488 | 11183 ft | 356 kts | 109° |
| 2026-05-05 21:51 | 40.26208 | -3.82437 | 10888 ft | 349 kts | 108° |
| 2026-05-05 21:51 | 40.25450 | -3.79440 | 10601 ft | 343 kts | 108° |
| 2026-05-05 21:52 | 40.23970 | -3.73610 | 10043 ft | 331 kts | 108° |
| 2026-05-05 21:52 | 40.23250 | -3.70780 | 9943 ft | 320 kts | 108° |
| 2026-05-05 21:52 | 40.22560 | -3.68073 | 9918 ft | 307 kts | 108° |
| 2026-05-05 21:53 | 40.21895 | -3.65473 | 9890 ft | 295 kts | 108° |
| 2026-05-05 21:53 | 40.21260 | -3.62980 | 9712 ft | 290 kts | 108° |
| 2026-05-05 21:53 | 40.20627 | -3.60485 | 9438 ft | 288 kts | 108° |
| 2026-05-05 21:53 | 40.19993 | -3.57999 | 9141 ft | 287 kts | 107° |
| 2026-05-05 21:54 | 40.19359 | -3.55514 | 8859 ft | 286 kts | 107° |
| 2026-05-05 21:54 | 40.18730 | -3.53055 | 8601 ft | 285 kts | 107° |
| 2026-05-05 21:54 | 40.18100 | -3.50601 | 8326 ft | 283 kts | 107° |
| 2026-05-05 21:54 | 40.17583 | -3.48177 | 8131 ft | 276 kts | 92° |
| 2026-05-05 21:55 | 40.17865 | -3.45774 | 7982 ft | 264 kts | 64° |
| 2026-05-05 21:55 | 40.18837 | -3.43798 | 7745 ft | 257 kts | 43° |
| 2026-05-05 21:55 | 40.20133 | -3.42212 | 7488 ft | 254 kts | 39° |
| 2026-05-05 21:55 | 40.21526 | -3.40804 | 7218 ft | 251 kts | 28° |
| 2026-05-05 21:56 | 40.23047 | -3.39698 | 6965 ft | 249 kts | 26° |
| 2026-05-05 21:56 | 40.24557 | -3.38649 | 6736 ft | 245 kts | 23° |
| 2026-05-05 21:56 | 40.26189 | -3.38110 | 6544 ft | 237 kts | 1° |
| 2026-05-05 21:56 | 40.27807 | -3.38010 | 6284 ft | 236 kts | 1° |
| 2026-05-05 21:57 | 40.29436 | -3.37895 | 6040 ft | 234 kts | 2° |
| 2026-05-05 21:57 | 40.31059 | -3.37837 | 5777 ft | 232 kts | 351° |
| 2026-05-05 21:57 | 40.32514 | -3.38646 | 5549 ft | 228 kts | 326° |
| 2026-05-05 21:57 | 40.33811 | -3.39861 | 5229 ft | 230 kts | 323° |
| 2026-05-05 21:58 | 40.35084 | -3.41145 | 4927 ft | 232 kts | 322° |
| 2026-05-05 21:58 | 40.36353 | -3.42439 | 4607 ft | 228 kts | 322° |
| 2026-05-05 21:58 | 40.37575 | -3.43684 | 4325 ft | 216 kts | 322° |
| 2026-05-05 21:58 | 40.38733 | -3.44859 | 4048 ft | 204 kts | 322° |
| 2026-05-05 21:59 | 40.39825 | -3.45970 | 3788 ft | 192 kts | 323° |
| 2026-05-05 21:59 | 40.40848 | -3.47007 | 3555 ft | 177 kts | 322° |
| 2026-05-05 21:59 | 40.41762 | -3.47934 | 3299 ft | 161 kts | 322° |
| 2026-05-05 21:59 | 40.42609 | -3.48794 | 3123 ft | 153 kts | 322° |
| 2026-05-05 22:00 | 40.43453 | -3.49651 | 2906 ft | 152 kts | 323° |
| 2026-05-05 22:00 | 40.44280 | -3.50490 | 2704 ft | 148 kts | 323° |
| 2026-05-05 22:00 | 40.45092 | -3.51315 | 2506 ft | 147 kts | 323° |
| 2026-05-05 22:00 | 40.45902 | -3.52137 | 2322 ft | 147 kts | 322° |
| 2026-05-05 22:01 | 40.46702 | -3.52949 | 2145 ft | 147 kts | 322° |
| 2026-05-05 22:01 | 40.47509 | -3.53764 | 2004 ft | 145 kts | 322° |
| 2026-05-05 22:01 | 40.48269 | -3.54546 | 1979 ft | 126 kts | 322° |
| 2026-05-05 22:01 | 40.48846 | -3.55131 | 1984 ft | 78 kts | 322° |
| 2026-05-05 22:02 | 40.49141 | -3.55445 | 1979 ft | 40 kts | 307° |
| 2026-05-05 22:02 | 40.49242 | -3.55698 | 1979 ft | 20 kts | 293° |
| 2026-05-05 22:02 | 40.49295 | -3.55869 | 1979 ft | 20 kts | 284° |
| 2026-05-05 22:02 | 40.49301 | -3.55982 | 1979 ft | 11 kts | 270° |
| 2026-05-05 22:03 | 40.49300 | -3.56078 | 1979 ft | 10 kts | 269° |
| 2026-05-05 22:03 | 40.49300 | -3.56171 | 1981 ft | 10 kts | 269° |
| 2026-05-05 22:03 | 40.49316 | -3.56247 | 1980 ft | 8 kts | 336° |
| 2026-05-05 22:03 | 40.49371 | -3.56251 | 1979 ft | 8 kts | 359° |
| 2026-05-05 22:04 | 40.49424 | -3.56253 | 1979 ft | 8 kts | 357° |
| 2026-05-05 22:04 | 40.49476 | -3.56253 | 1979 ft | 7 kts | 360° |
| 2026-05-05 22:04 | 40.49526 | -3.56253 | 1979 ft | 7 kts | 360° |
| 2026-05-05 22:04 | 40.49554 | -3.56297 | 1981 ft | 7 kts | 277° |
| 2026-05-05 22:05 | 40.49556 | -3.56360 | 1979 ft | 7 kts | 271° |
| 2026-05-05 22:05 | 40.49554 | -3.56422 | 1981 ft | 7 kts | 267° |
| 2026-05-05 22:05 | 40.49549 | -3.56457 | 1979 ft | 1 kts | 222° |
| 2026-05-05 22:05 | 40.49539 | -3.56457 | 1981 ft | 2 kts | 183° |
| 2026-05-05 22:06 | 40.49497 | -3.56458 | 1979 ft | 8 kts | 180° |
| 2026-05-05 22:06 | 40.49440 | -3.56458 | 1979 ft | 8 kts | 180° |
| 2026-05-05 22:06 | 40.49386 | -3.56458 | 1979 ft | 8 kts | 180° |
| 2026-05-05 22:06 | 40.49332 | -3.56458 | 1979 ft | 8 kts | 180° |
| 2026-05-05 22:07 | 40.49288 | -3.56477 | 1979 ft | 7 kts | 252° |
| 2026-05-05 22:07 | 40.49291 | -3.56542 | 1979 ft | 7 kts | 275° |
| 2026-05-05 22:07 | 40.49292 | -3.56606 | 1979 ft | 7 kts | 269° |
| 2026-05-05 22:07 | 40.49293 | -3.56636 | 1979 ft | 1 kts | 270° |
| 2026-05-05 22:08 | 40.49293 | -3.56644 | 1979 ft | 1 kts | 270° |
| 2026-05-05 22:08 | 40.49293 | -3.56646 | 1979 ft | 0 kts | 270° |